Etusivu
METAR-TAF:

METAR-TAF

Lentoasemat :

Oujda, Marokko

Leveyspiiri: 34-47N, Pituuspiiri: 001-56W, korkeus merenpinnasta: 468 m

Tämänhetkinen sää

Tämä raportti tehtiin 38 minuuttia sitten, kello 02.30 UTC
Tuuli 2 kn lännestä/lounaasta
Lämpötila 22°C
Kosteus 33%
Ilmanpaine 1015 hPa
Näkyvyys 10 km tai enemmän
ei pilviä alle 1500 m:ssä eikä cumulonimbus-pilviä

METAR: GMFO 150230Z 24002KT CAVOK 22/05 Q1015 NOSIG

Aika: 04:08 (03:08 UTC)

Sääennuste

Tämä raportti tehtiin 4 tuntia ja 8 minuuttia sitten, kello 23.00 UTC
Ennuste voimassa 15. päivästä klo 00 UTC - 16. päivään klo 06 UTC
Tuuli 5 kn etelästä/lounaasta
Näkyvyys 10 km tai enemmän
ei pilviä alle 1500 m:ssä eikä cumulonimbus-pilviä
Tulossa
15. päivästä klo 12 UTC - 15. päivään klo 16 UTC
Tuuli 15 kn pohjoisesta

TAF: GMFO 142300Z 1500/1606 20005KT CAVOK BECMG 1512/1516 35015KT

Säähavainnot ja -ennusteet yli 4000 lentoasemalta (METAR- ja TAF-raportit).

Käytössä olevat sääasemat on merkitty karttaan keltaisilla ja punaisilla pisteillä.

Aseta hiiri pisteen päälle nähdäksesi sääaseman nimen.

Klikkaa sitten nähdäksesi säähavainnot ja -ennusteet.

Kartan vaihtaminen: klikkaa mustalla rastilla varustettuja vihreitä pisteitä, niin voit zoomata sisään; viivalla varustettua vihreää pistettä, niin voit zoomata ulos tai vihreitä nuolia, niin pääset viereisille kartoille.


METAR-TAF: